Terminal Aerodrome Forecast
Issued by NWS

Home | Current Version | Previous Version | Text Only | Print | Product List | Glossary On
Versions: 1 2 3 4 5 6 7 8 9 10 11 12 13 14
000
FTUS45 KRIW 250539
TAFCPR
TAF
KCPR 250539Z 2506/2606 23013KT P6SM SCT110
     FM251600 23020G30KT P6SM SCT100 BKN150
     FM260100 23013G19KT P6SM SCT090=

USA.gov is the U.S. government's official web portal to all federal, state and local government web resources and services.